sensor_id;sensor_type;location;lat;lon;timestamp;pressure;altitude;pressure_sealevel;temperature;humidity
80922;BME280;70374;46.156;18.614;2023-06-04T00:01:18;99446.22;;;13.11;56.78
80922;BME280;70374;46.156;18.614;2023-06-04T00:04:21;99444.69;;;12.81;57.76
80922;BME280;70374;46.156;18.614;2023-06-04T00:07:25;99446.88;;;12.62;57.94
80922;BME280;70374;46.156;18.614;2023-06-04T00:10:28;99448.03;;;12.55;57.92
80922;BME280;70374;46.156;18.614;2023-06-04T00:13:30;99443.69;;;12.54;57.49
80922;BME280;70374;46.156;18.614;2023-06-04T00:16:33;99442.81;;;12.48;57.36
80922;BME280;70374;46.156;18.614;2023-06-04T00:19:40;99442.63;;;12.52;57.19
80922;BME280;70374;46.156;18.614;2023-06-04T00:22:43;99448.03;;;12.70;56.18
80922;BME280;70374;46.156;18.614;2023-06-04T00:25:46;99435.94;;;12.73;56.24
80922;BME280;70374;46.156;18.614;2023-06-04T00:28:48;99444.94;;;12.68;56.61
80922;BME280;70374;46.156;18.614;2023-06-04T00:31:51;99443.41;;;12.52;57.34
80922;BME280;70374;46.156;18.614;2023-06-04T00:34:54;99443.00;;;12.45;57.67
80922;BME280;70374;46.156;18.614;2023-06-04T00:37:57;99440.31;;;12.50;57.08
80922;BME280;70374;46.156;18.614;2023-06-04T00:41:00;99438.00;;;12.34;57.33
80922;BME280;70374;46.156;18.614;2023-06-04T00:44:02;99432.34;;;12.29;57.13
80922;BME280;70374;46.156;18.614;2023-06-04T00:47:08;99433.53;;;12.13;57.47
80922;BME280;70374;46.156;18.614;2023-06-04T00:50:11;99437.72;;;12.32;56.55
80922;BME280;70374;46.156;18.614;2023-06-04T00:53:14;99431.72;;;12.10;57.57
80922;BME280;70374;46.156;18.614;2023-06-04T00:56:18;99423.50;;;11.92;58.20
80922;BME280;70374;46.156;18.614;2023-06-04T00:59:21;99425.03;;;11.93;58.08
80922;BME280;70374;46.156;18.614;2023-06-04T01:02:24;99428.84;;;11.81;58.56
80922;BME280;70374;46.156;18.614;2023-06-04T01:05:39;99420.84;;;11.97;58.29
80922;BME280;70374;46.156;18.614;2023-06-04T01:08:44;99411.75;;;11.73;59.28
80922;BME280;70374;46.156;18.614;2023-06-04T01:11:47;99421.91;;;11.76;58.31
80922;BME280;70374;46.156;18.614;2023-06-04T01:14:49;99421.53;;;11.59;59.34
80922;BME280;70374;46.156;18.614;2023-06-04T01:17:58;99413.38;;;11.56;59.73
80922;BME280;70374;46.156;18.614;2023-06-04T01:21:10;99416.63;;;11.54;59.63
80922;BME280;70374;46.156;18.614;2023-06-04T01:24:15;99419.88;;;11.53;59.33
80922;BME280;70374;46.156;18.614;2023-06-04T01:27:18;99419.47;;;11.45;59.50
80922;BME280;70374;46.156;18.614;2023-06-04T01:30:26;99418.16;;;11.32;59.89
80922;BME280;70374;46.156;18.614;2023-06-04T01:33:30;99413.13;;;11.45;59.38
80922;BME280;70374;46.156;18.614;2023-06-04T01:36:33;99416.75;;;11.27;59.83
80922;BME280;70374;46.156;18.614;2023-06-04T01:39:35;99421.44;;;11.21;59.83
80922;BME280;70374;46.156;18.614;2023-06-04T01:42:38;99420.59;;;11.06;60.32
80922;BME280;70374;46.156;18.614;2023-06-04T01:45:40;99428.00;;;11.00;60.54
80922;BME280;70374;46.156;18.614;2023-06-04T01:48:43;99426.47;;;10.99;60.51
80922;BME280;70374;46.156;18.614;2023-06-04T01:51:45;99438.53;;;10.96;60.51
80922;BME280;70374;46.156;18.614;2023-06-04T01:54:48;99432.97;;;10.96;60.46
80922;BME280;70374;46.156;18.614;2023-06-04T01:57:54;99435.75;;;10.96;60.30
80922;BME280;70374;46.156;18.614;2023-06-04T02:00:57;99443.75;;;10.94;60.32
80922;BME280;70374;46.156;18.614;2023-06-04T02:04:02;99442.84;;;10.88;60.60
80922;BME280;70374;46.156;18.614;2023-06-04T02:07:05;99444.00;;;11.14;59.96
80922;BME280;70374;46.156;18.614;2023-06-04T02:10:10;99456.34;;;11.13;59.93
80922;BME280;70374;46.156;18.614;2023-06-04T02:13:14;99457.31;;;11.01;60.49
80922;BME280;70374;46.156;18.614;2023-06-04T02:16:17;99458.94;;;11.16;60.08
80922;BME280;70374;46.156;18.614;2023-06-04T02:19:19;99456.00;;;11.20;60.07
80922;BME280;70374;46.156;18.614;2023-06-04T02:22:24;99457.91;;;11.05;61.00
80922;BME280;70374;46.156;18.614;2023-06-04T02:25:26;99459.31;;;11.09;60.52
80922;BME280;70374;46.156;18.614;2023-06-04T02:28:29;99466.22;;;11.14;60.00
80922;BME280;70374;46.156;18.614;2023-06-04T02:31:32;99460.37;;;11.12;59.75
80922;BME280;70374;46.156;18.614;2023-06-04T02:34:35;99463.16;;;11.12;59.56
80922;BME280;70374;46.156;18.614;2023-06-04T02:37:38;99455.88;;;11.14;59.63
80922;BME280;70374;46.156;18.614;2023-06-04T02:40:42;99453.91;;;11.06;59.96
80922;BME280;70374;46.156;18.614;2023-06-04T02:43:44;99454.66;;;11.06;59.57
80922;BME280;70374;46.156;18.614;2023-06-04T02:46:47;99461.66;;;10.93;60.20
80922;BME280;70374;46.156;18.614;2023-06-04T02:49:50;99455.44;;;11.07;59.47
80922;BME280;70374;46.156;18.614;2023-06-04T02:52:52;99464.34;;;11.20;58.77
80922;BME280;70374;46.156;18.614;2023-06-04T02:55:55;99460.50;;;11.17;58.94
80922;BME280;70374;46.156;18.614;2023-06-04T02:58:58;99463.91;;;11.12;58.96
80922;BME280;70374;46.156;18.614;2023-06-04T03:02:00;99459.63;;;11.02;59.16
80922;BME280;70374;46.156;18.614;2023-06-04T03:05:03;99468.91;;;10.90;59.64
80922;BME280;70374;46.156;18.614;2023-06-04T03:08:06;99470.59;;;10.97;59.24
80922;BME280;70374;46.156;18.614;2023-06-04T03:11:09;99469.19;;;11.01;59.11
80922;BME280;70374;46.156;18.614;2023-06-04T03:14:11;99469.66;;;11.00;59.35
80922;BME280;70374;46.156;18.614;2023-06-04T03:17:14;99469.16;;;11.10;59.10
80922;BME280;70374;46.156;18.614;2023-06-04T03:20:17;99465.75;;;11.15;58.87
80922;BME280;70374;46.156;18.614;2023-06-04T03:23:20;99471.88;;;11.29;58.61
80922;BME280;70374;46.156;18.614;2023-06-04T03:26:23;99474.28;;;11.45;58.04
80922;BME280;70374;46.156;18.614;2023-06-04T03:29:26;99473.25;;;11.33;58.41
80922;BME280;70374;46.156;18.614;2023-06-04T03:32:29;99476.66;;;11.28;58.70
80922;BME280;70374;46.156;18.614;2023-06-04T03:35:32;99482.31;;;11.43;58.26
80922;BME280;70374;46.156;18.614;2023-06-04T03:38:35;99486.16;;;11.45;58.08
80922;BME280;70374;46.156;18.614;2023-06-04T03:41:38;99479.81;;;11.54;58.28
80922;BME280;70374;46.156;18.614;2023-06-04T03:44:42;99478.34;;;11.67;57.71
80922;BME280;70374;46.156;18.614;2023-06-04T03:47:45;99484.47;;;11.81;57.52
80922;BME280;70374;46.156;18.614;2023-06-04T03:50:48;99487.59;;;11.74;58.29
80922;BME280;70374;46.156;18.614;2023-06-04T03:53:52;99483.19;;;11.82;58.29
80922;BME280;70374;46.156;18.614;2023-06-04T03:56:54;99486.22;;;11.93;58.67
80922;BME280;70374;46.156;18.614;2023-06-04T03:59:58;99487.09;;;12.23;56.69
80922;BME280;70374;46.156;18.614;2023-06-04T04:03:00;99483.31;;;12.35;56.11
80922;BME280;70374;46.156;18.614;2023-06-04T04:06:03;99486.19;;;12.40;56.14
80922;BME280;70374;46.156;18.614;2023-06-04T04:09:06;99488.72;;;12.53;55.98
80922;BME280;70374;46.156;18.614;2023-06-04T04:12:09;99482.59;;;12.63;56.17
80922;BME280;70374;46.156;18.614;2023-06-04T04:15:12;99495.75;;;12.63;56.12
80922;BME280;70374;46.156;18.614;2023-06-04T04:18:15;99492.00;;;12.66;56.67
80922;BME280;70374;46.156;18.614;2023-06-04T04:21:19;99493.34;;;12.85;57.00
80922;BME280;70374;46.156;18.614;2023-06-04T04:24:27;99497.97;;;13.03;55.96
80922;BME280;70374;46.156;18.614;2023-06-04T04:27:30;99493.41;;;13.14;55.77
80922;BME280;70374;46.156;18.614;2023-06-04T04:30:34;99500.59;;;13.21;55.88
80922;BME280;70374;46.156;18.614;2023-06-04T04:33:37;99500.47;;;13.30;56.10
80922;BME280;70374;46.156;18.614;2023-06-04T04:36:43;99501.44;;;13.42;55.72
80922;BME280;70374;46.156;18.614;2023-06-04T04:39:46;99496.50;;;13.51;54.39
80922;BME280;70374;46.156;18.614;2023-06-04T04:42:49;99500.53;;;13.65;54.83
80922;BME280;70374;46.156;18.614;2023-06-04T04:45:52;99510.38;;;13.81;54.60
80922;BME280;70374;46.156;18.614;2023-06-04T04:48:54;99501.12;;;13.89;54.85
80922;BME280;70374;46.156;18.614;2023-06-04T04:51:57;99505.53;;;13.96;55.04
80922;BME280;70374;46.156;18.614;2023-06-04T04:55:00;99505.69;;;14.07;54.92
80922;BME280;70374;46.156;18.614;2023-06-04T04:58:03;99515.16;;;14.15;54.63
80922;BME280;70374;46.156;18.614;2023-06-04T05:01:07;99515.44;;;14.17;54.07
80922;BME280;70374;46.156;18.614;2023-06-04T05:04:10;99518.81;;;14.21;54.78
80922;BME280;70374;46.156;18.614;2023-06-04T05:07:14;99508.94;;;14.26;54.06
80922;BME280;70374;46.156;18.614;2023-06-04T05:10:16;99500.66;;;14.31;54.06
80922;BME280;70374;46.156;18.614;2023-06-04T05:13:20;99510.94;;;14.40;54.09
80922;BME280;70374;46.156;18.614;2023-06-04T05:16:23;99504.72;;;14.50;54.28
80922;BME280;70374;46.156;18.614;2023-06-04T05:19:26;99514.41;;;14.55;54.06
80922;BME280;70374;46.156;18.614;2023-06-04T05:22:29;99516.34;;;14.69;54.57
80922;BME280;70374;46.156;18.614;2023-06-04T05:25:32;99512.87;;;14.80;53.66
80922;BME280;70374;46.156;18.614;2023-06-04T05:28:35;99518.03;;;14.87;53.69
80922;BME280;70374;46.156;18.614;2023-06-04T05:31:38;99519.84;;;14.90;53.39
80922;BME280;70374;46.156;18.614;2023-06-04T05:34:42;99521.25;;;15.00;53.75
80922;BME280;70374;46.156;18.614;2023-06-04T05:37:46;99524.97;;;15.17;54.07
80922;BME280;70374;46.156;18.614;2023-06-04T05:40:56;99521.47;;;15.28;52.82
80922;BME280;70374;46.156;18.614;2023-06-04T05:43:59;99529.94;;;15.33;52.82
80922;BME280;70374;46.156;18.614;2023-06-04T05:47:02;99523.38;;;15.42;53.31
80922;BME280;70374;46.156;18.614;2023-06-04T05:50:06;99526.22;;;15.47;52.75
80922;BME280;70374;46.156;18.614;2023-06-04T05:53:09;99533.16;;;15.52;52.76
80922;BME280;70374;46.156;18.614;2023-06-04T05:56:13;99533.75;;;15.61;53.56
80922;BME280;70374;46.156;18.614;2023-06-04T05:59:15;99533.81;;;15.72;52.67
80922;BME280;70374;46.156;18.614;2023-06-04T06:02:18;99531.34;;;15.86;52.85
80922;BME280;70374;46.156;18.614;2023-06-04T06:05:22;99544.41;;;15.94;53.30
80922;BME280;70374;46.156;18.614;2023-06-04T06:08:24;99537.88;;;16.08;53.37
80922;BME280;70374;46.156;18.614;2023-06-04T06:11:28;99539.41;;;16.15;52.59
80922;BME280;70374;46.156;18.614;2023-06-04T06:14:31;99543.84;;;16.38;53.14
80922;BME280;70374;46.156;18.614;2023-06-04T06:17:34;99539.84;;;16.50;52.91
80922;BME280;70374;46.156;18.614;2023-06-04T06:20:37;99540.34;;;16.54;51.68
80922;BME280;70374;46.156;18.614;2023-06-04T06:23:40;99546.56;;;16.64;51.42
80922;BME280;70374;46.156;18.614;2023-06-04T06:26:43;99541.72;;;16.70;51.18
80922;BME280;70374;46.156;18.614;2023-06-04T06:29:46;99551.44;;;16.86;51.55
80922;BME280;70374;46.156;18.614;2023-06-04T06:32:49;99558.59;;;16.87;51.16
80922;BME280;70374;46.156;18.614;2023-06-04T06:35:52;99555.53;;;16.96;52.51
80922;BME280;70374;46.156;18.614;2023-06-04T06:38:54;99559.91;;;17.13;51.13
80922;BME280;70374;46.156;18.614;2023-06-04T06:41:57;99560.19;;;17.21;50.84
80922;BME280;70374;46.156;18.614;2023-06-04T06:45:01;99562.50;;;17.28;51.42
80922;BME280;70374;46.156;18.614;2023-06-04T06:48:04;99556.38;;;17.24;50.87
80922;BME280;70374;46.156;18.614;2023-06-04T06:51:07;99560.97;;;17.38;51.05
80922;BME280;70374;46.156;18.614;2023-06-04T06:54:09;99564.28;;;17.37;50.78
80922;BME280;70374;46.156;18.614;2023-06-04T06:57:13;99556.41;;;17.46;50.84
80922;BME280;70374;46.156;18.614;2023-06-04T07:00:15;99555.62;;;17.57;50.25
80922;BME280;70374;46.156;18.614;2023-06-04T07:03:19;99553.34;;;17.72;50.50
80922;BME280;70374;46.156;18.614;2023-06-04T07:06:21;99547.97;;;17.91;49.97
80922;BME280;70374;46.156;18.614;2023-06-04T07:09:24;99557.91;;;17.97;49.71
80922;BME280;70374;46.156;18.614;2023-06-04T07:12:26;99551.25;;;18.06;49.64
80922;BME280;70374;46.156;18.614;2023-06-04T07:15:29;99550.22;;;18.09;49.57
80922;BME280;70374;46.156;18.614;2023-06-04T07:18:32;99558.13;;;18.05;48.33
80922;BME280;70374;46.156;18.614;2023-06-04T07:21:35;99562.50;;;18.11;48.81
80922;BME280;70374;46.156;18.614;2023-06-04T07:24:38;99557.84;;;18.25;48.69
80922;BME280;70374;46.156;18.614;2023-06-04T07:27:40;99558.31;;;18.29;49.04
80922;BME280;70374;46.156;18.614;2023-06-04T07:30:45;99560.88;;;18.33;48.30
80922;BME280;70374;46.156;18.614;2023-06-04T07:33:48;99558.06;;;18.33;48.60
80922;BME280;70374;46.156;18.614;2023-06-04T07:36:50;99557.75;;;18.53;49.46
80922;BME280;70374;46.156;18.614;2023-06-04T07:39:53;99558.00;;;18.66;48.63
80922;BME280;70374;46.156;18.614;2023-06-04T07:42:55;99561.25;;;18.76;47.97
80922;BME280;70374;46.156;18.614;2023-06-04T07:45:58;99556.03;;;18.91;48.67
80922;BME280;70374;46.156;18.614;2023-06-04T07:49:01;99562.88;;;19.06;48.66
80922;BME280;70374;46.156;18.614;2023-06-04T07:52:03;99558.81;;;19.02;47.52
80922;BME280;70374;46.156;18.614;2023-06-04T07:55:06;99566.63;;;19.20;48.61
80922;BME280;70374;46.156;18.614;2023-06-04T07:58:10;99566.47;;;19.42;48.25
80922;BME280;70374;46.156;18.614;2023-06-04T08:01:13;99568.03;;;19.43;48.24
80922;BME280;70374;46.156;18.614;2023-06-04T08:04:16;99570.50;;;19.52;47.29
80922;BME280;70374;46.156;18.614;2023-06-04T08:07:18;99571.00;;;19.56;47.43
80922;BME280;70374;46.156;18.614;2023-06-04T08:10:21;99565.78;;;19.66;47.27
80922;BME280;70374;46.156;18.614;2023-06-04T08:13:24;99566.06;;;19.62;46.50
80922;BME280;70374;46.156;18.614;2023-06-04T08:16:27;99567.56;;;19.69;46.01
80922;BME280;70374;46.156;18.614;2023-06-04T08:19:29;99566.87;;;19.87;46.46
80922;BME280;70374;46.156;18.614;2023-06-04T08:22:32;99565.09;;;19.90;45.65
80922;BME280;70374;46.156;18.614;2023-06-04T08:25:34;99558.25;;;20.04;45.24
80922;BME280;70374;46.156;18.614;2023-06-04T08:28:37;99560.75;;;20.13;45.16
80922;BME280;70374;46.156;18.614;2023-06-04T08:31:41;99559.41;;;20.19;44.20
80922;BME280;70374;46.156;18.614;2023-06-04T08:34:44;99561.34;;;20.30;44.08
80922;BME280;70374;46.156;18.614;2023-06-04T08:37:46;99562.56;;;20.35;44.31
80922;BME280;70374;46.156;18.614;2023-06-04T08:40:52;99567.41;;;20.40;44.76
80922;BME280;70374;46.156;18.614;2023-06-04T08:43:56;99557.94;;;20.37;45.24
80922;BME280;70374;46.156;18.614;2023-06-04T08:47:05;99560.50;;;20.59;45.00
80922;BME280;70374;46.156;18.614;2023-06-04T08:50:10;99565.16;;;20.75;45.13
80922;BME280;70374;46.156;18.614;2023-06-04T08:53:15;99565.63;;;20.98;45.11
80922;BME280;70374;46.156;18.614;2023-06-04T08:56:19;99571.50;;;21.00;45.07
80922;BME280;70374;46.156;18.614;2023-06-04T08:59:22;99561.13;;;21.08;44.98
80922;BME280;70374;46.156;18.614;2023-06-04T09:02:27;99572.16;;;21.06;44.68
80922;BME280;70374;46.156;18.614;2023-06-04T09:05:30;99568.97;;;20.97;44.10
80922;BME280;70374;46.156;18.614;2023-06-04T09:08:36;99585.94;;;21.15;45.15
80922;BME280;70374;46.156;18.614;2023-06-04T09:12:01;99571.75;;;21.21;43.03
80922;BME280;70374;46.156;18.614;2023-06-04T09:15:05;99572.03;;;21.36;43.67
80922;BME280;70374;46.156;18.614;2023-06-04T09:18:11;99574.59;;;21.53;43.05
80922;BME280;70374;46.156;18.614;2023-06-04T09:21:14;99577.31;;;21.58;43.24
80922;BME280;70374;46.156;18.614;2023-06-04T09:24:18;99574.44;;;21.77;43.34
80922;BME280;70374;46.156;18.614;2023-06-04T09:27:20;99571.56;;;21.96;44.04
80922;BME280;70374;46.156;18.614;2023-06-04T09:30:24;99574.00;;;22.05;42.79
80922;BME280;70374;46.156;18.614;2023-06-04T09:33:27;99570.28;;;22.10;42.54
80922;BME280;70374;46.156;18.614;2023-06-04T09:36:30;99578.66;;;22.02;41.82
80922;BME280;70374;46.156;18.614;2023-06-04T09:39:33;99565.59;;;21.99;41.49
80922;BME280;70374;46.156;18.614;2023-06-04T09:42:47;99563.84;;;21.96;41.12
80922;BME280;70374;46.156;18.614;2023-06-04T09:45:56;99558.19;;;21.96;41.44
80922;BME280;70374;46.156;18.614;2023-06-04T09:49:01;99557.03;;;22.05;40.56
80922;BME280;70374;46.156;18.614;2023-06-04T09:52:04;99557.47;;;22.09;40.09
80922;BME280;70374;46.156;18.614;2023-06-04T09:55:17;99558.00;;;22.07;40.54
80922;BME280;70374;46.156;18.614;2023-06-04T09:58:28;99561.41;;;22.19;40.56
80922;BME280;70374;46.156;18.614;2023-06-04T10:01:32;99564.75;;;22.17;40.98
80922;BME280;70374;46.156;18.614;2023-06-04T10:04:36;99553.25;;;22.15;40.79
80922;BME280;70374;46.156;18.614;2023-06-04T10:07:42;99559.66;;;22.29;41.42
80922;BME280;70374;46.156;18.614;2023-06-04T10:10:45;99559.31;;;22.46;41.72
80922;BME280;70374;46.156;18.614;2023-06-04T10:13:53;99554.62;;;22.61;41.63
80922;BME280;70374;46.156;18.614;2023-06-04T10:16:58;99550.94;;;22.53;41.54
80922;BME280;70374;46.156;18.614;2023-06-04T10:20:01;99548.31;;;22.55;41.33
80922;BME280;70374;46.156;18.614;2023-06-04T10:23:07;99553.00;;;22.53;41.68
80922;BME280;70374;46.156;18.614;2023-06-04T10:26:14;99550.69;;;22.78;41.55
80922;BME280;70374;46.156;18.614;2023-06-04T10:29:18;99551.59;;;22.72;41.23
80922;BME280;70374;46.156;18.614;2023-06-04T10:32:20;99544.94;;;22.83;41.16
80922;BME280;70374;46.156;18.614;2023-06-04T10:35:33;99538.63;;;22.90;41.54
80922;BME280;70374;46.156;18.614;2023-06-04T10:38:45;99539.03;;;22.81;41.80
80922;BME280;70374;46.156;18.614;2023-06-04T10:41:57;99545.28;;;23.13;41.87
80922;BME280;70374;46.156;18.614;2023-06-04T10:45:00;99539.00;;;23.07;40.24
80922;BME280;70374;46.156;18.614;2023-06-04T10:48:08;99545.63;;;23.10;40.24
80922;BME280;70374;46.156;18.614;2023-06-04T10:51:11;99544.59;;;23.20;41.29
80922;BME280;70374;46.156;18.614;2023-06-04T10:54:22;99533.03;;;22.98;40.55
80922;BME280;70374;46.156;18.614;2023-06-04T10:57:25;99523.88;;;22.92;40.44
80922;BME280;70374;46.156;18.614;2023-06-04T11:00:36;99529.41;;;23.10;41.00
80922;BME280;70374;46.156;18.614;2023-06-04T11:03:38;99526.00;;;23.12;40.71
80922;BME280;70374;46.156;18.614;2023-06-04T11:06:42;99522.09;;;23.15;41.02
80922;BME280;70374;46.156;18.614;2023-06-04T11:09:49;99524.81;;;23.41;41.57
80922;BME280;70374;46.156;18.614;2023-06-04T11:12:52;99535.13;;;23.52;41.31
80922;BME280;70374;46.156;18.614;2023-06-04T11:15:55;99524.94;;;23.56;41.43
80922;BME280;70374;46.156;18.614;2023-06-04T11:18:58;99529.31;;;23.57;40.71
80922;BME280;70374;46.156;18.614;2023-06-04T11:22:05;99525.59;;;23.62;40.99
80922;BME280;70374;46.156;18.614;2023-06-04T11:25:08;99530.25;;;23.81;41.40
80922;BME280;70374;46.156;18.614;2023-06-04T11:28:18;99522.16;;;23.85;40.42
80922;BME280;70374;46.156;18.614;2023-06-04T11:31:21;99516.16;;;23.88;41.21
80922;BME280;70374;46.156;18.614;2023-06-04T11:34:25;99516.56;;;23.92;40.50
80922;BME280;70374;46.156;18.614;2023-06-04T11:37:27;99512.75;;;23.90;40.35
80922;BME280;70374;46.156;18.614;2023-06-04T11:40:32;99506.47;;;23.84;39.81
80922;BME280;70374;46.156;18.614;2023-06-04T11:43:35;99499.44;;;24.05;41.48
80922;BME280;70374;46.156;18.614;2023-06-04T11:46:42;99508.59;;;23.91;39.32
80922;BME280;70374;46.156;18.614;2023-06-04T11:49:48;99500.72;;;23.97;40.58
80922;BME280;70374;46.156;18.614;2023-06-04T11:52:52;99508.81;;;23.93;40.43
80922;BME280;70374;46.156;18.614;2023-06-04T11:55:55;99507.88;;;23.98;41.73
80922;BME280;70374;46.156;18.614;2023-06-04T11:58:58;99505.97;;;23.93;40.88
80922;BME280;70374;46.156;18.614;2023-06-04T12:02:01;99505.50;;;23.81;40.24
80922;BME280;70374;46.156;18.614;2023-06-04T12:05:14;99499.06;;;23.81;40.25
80922;BME280;70374;46.156;18.614;2023-06-04T12:08:17;99504.44;;;24.12;41.38
80922;BME280;70374;46.156;18.614;2023-06-04T12:14:34;99502.66;;;24.30;41.51
80922;BME280;70374;46.156;18.614;2023-06-04T12:17:37;99500.34;;;24.21;40.68
80922;BME280;70374;46.156;18.614;2023-06-04T12:20:40;99495.03;;;24.25;42.00
80922;BME280;70374;46.156;18.614;2023-06-04T12:23:44;99489.19;;;24.23;41.15
80922;BME280;70374;46.156;18.614;2023-06-04T12:26:46;99481.25;;;24.29;41.78
80922;BME280;70374;46.156;18.614;2023-06-04T12:30:02;99485.09;;;24.39;41.82
80922;BME280;70374;46.156;18.614;2023-06-04T12:33:05;99472.50;;;24.19;41.13
80922;BME280;70374;46.156;18.614;2023-06-04T12:36:08;99471.03;;;24.26;42.00
80922;BME280;70374;46.156;18.614;2023-06-04T12:39:11;99471.44;;;24.30;41.84
80922;BME280;70374;46.156;18.614;2023-06-04T12:42:14;99467.66;;;24.35;41.09
80922;BME280;70374;46.156;18.614;2023-06-04T12:45:16;99479.00;;;24.35;41.21
80922;BME280;70374;46.156;18.614;2023-06-04T12:48:19;99475.31;;;24.48;41.42
80922;BME280;70374;46.156;18.614;2023-06-04T12:51:22;99469.63;;;24.48;41.60
80922;BME280;70374;46.156;18.614;2023-06-04T12:54:25;99470.41;;;24.48;41.55
80922;BME280;70374;46.156;18.614;2023-06-04T12:57:29;99467.19;;;24.59;42.28
80922;BME280;70374;46.156;18.614;2023-06-04T13:00:31;99467.06;;;24.80;42.42
80922;BME280;70374;46.156;18.614;2023-06-04T13:03:37;99460.47;;;24.78;41.30
80922;BME280;70374;46.156;18.614;2023-06-04T13:06:40;99459.97;;;24.94;41.29
80922;BME280;70374;46.156;18.614;2023-06-04T13:09:42;99453.50;;;24.94;41.61
80922;BME280;70374;46.156;18.614;2023-06-04T13:12:45;99455.22;;;24.89;41.57
80922;BME280;70374;46.156;18.614;2023-06-04T13:15:48;99450.84;;;24.88;41.67
80922;BME280;70374;46.156;18.614;2023-06-04T13:18:51;99458.78;;;24.82;41.87
80922;BME280;70374;46.156;18.614;2023-06-04T13:21:53;99464.88;;;24.94;41.83
80922;BME280;70374;46.156;18.614;2023-06-04T13:24:56;99458.06;;;25.04;41.54
80922;BME280;70374;46.156;18.614;2023-06-04T13:28:02;99451.28;;;25.22;41.29
80922;BME280;70374;46.156;18.614;2023-06-04T13:31:05;99457.94;;;25.63;41.17
80922;BME280;70374;46.156;18.614;2023-06-04T13:34:07;99458.72;;;25.56;40.18
80922;BME280;70374;46.156;18.614;2023-06-04T13:37:16;99452.44;;;25.27;41.47
80922;BME280;70374;46.156;18.614;2023-06-04T13:40:19;99451.28;;;25.83;40.90
80922;BME280;70374;46.156;18.614;2023-06-04T13:43:21;99442.91;;;26.00;41.25
80922;BME280;70374;46.156;18.614;2023-06-04T13:46:24;99443.63;;;26.16;40.77
80922;BME280;70374;46.156;18.614;2023-06-04T13:49:27;99444.03;;;26.05;40.38
80922;BME280;70374;46.156;18.614;2023-06-04T13:52:30;99445.34;;;26.11;39.88
80922;BME280;70374;46.156;18.614;2023-06-04T13:55:33;99446.06;;;26.27;39.94
80922;BME280;70374;46.156;18.614;2023-06-04T13:58:35;99454.97;;;26.31;39.71
80922;BME280;70374;46.156;18.614;2023-06-04T14:01:38;99450.78;;;26.40;39.74
80922;BME280;70374;46.156;18.614;2023-06-04T14:04:41;99450.25;;;26.73;39.50
80922;BME280;70374;46.156;18.614;2023-06-04T14:07:43;99441.78;;;26.58;39.18
80922;BME280;70374;46.156;18.614;2023-06-04T14:10:46;99444.03;;;26.67;39.73
80922;BME280;70374;46.156;18.614;2023-06-04T14:13:49;99437.44;;;26.57;38.24
80922;BME280;70374;46.156;18.614;2023-06-04T14:16:51;99442.16;;;26.55;38.74
80922;BME280;70374;46.156;18.614;2023-06-04T14:19:57;99441.19;;;26.67;39.41
80922;BME280;70374;46.156;18.614;2023-06-04T14:23:00;99429.72;;;26.75;38.51
80922;BME280;70374;46.156;18.614;2023-06-04T14:26:02;99429.50;;;27.62;37.65
80922;BME280;70374;46.156;18.614;2023-06-04T14:29:05;99429.66;;;27.64;36.23
80922;BME280;70374;46.156;18.614;2023-06-04T14:32:07;99428.44;;;28.88;34.65
80922;BME280;70374;46.156;18.614;2023-06-04T14:35:10;99425.56;;;31.04;30.63
80922;BME280;70374;46.156;18.614;2023-06-04T14:38:13;99439.25;;;33.18;27.76
80922;BME280;70374;46.156;18.614;2023-06-04T14:41:16;99429.00;;;33.15;27.30
80922;BME280;70374;46.156;18.614;2023-06-04T14:44:19;99420.94;;;33.83;26.03
80922;BME280;70374;46.156;18.614;2023-06-04T14:47:22;99417.03;;;30.76;30.43
80922;BME280;70374;46.156;18.614;2023-06-04T14:50:25;99408.34;;;28.68;34.59
80922;BME280;70374;46.156;18.614;2023-06-04T14:53:28;99412.19;;;28.63;35.04
80922;BME280;70374;46.156;18.614;2023-06-04T14:56:30;99404.41;;;32.13;29.80
80922;BME280;70374;46.156;18.614;2023-06-04T14:59:33;99404.69;;;33.41;26.93
80922;BME280;70374;46.156;18.614;2023-06-04T15:02:36;99399.97;;;35.89;24.01
80922;BME280;70374;46.156;18.614;2023-06-04T15:05:39;99397.75;;;35.46;24.10
80922;BME280;70374;46.156;18.614;2023-06-04T15:08:42;99391.37;;;36.04;23.13
80922;BME280;70374;46.156;18.614;2023-06-04T15:11:44;99384.81;;;36.18;23.30
80922;BME280;70374;46.156;18.614;2023-06-04T15:14:47;99393.78;;;34.48;25.32
80922;BME280;70374;46.156;18.614;2023-06-04T15:17:49;99382.69;;;36.18;23.52
80922;BME280;70374;46.156;18.614;2023-06-04T15:20:52;99379.66;;;36.75;22.75
80922;BME280;70374;46.156;18.614;2023-06-04T15:23:55;99376.94;;;36.63;23.31
80922;BME280;70374;46.156;18.614;2023-06-04T15:26:58;99381.88;;;37.54;22.17
80922;BME280;70374;46.156;18.614;2023-06-04T15:30:01;99384.03;;;36.60;22.79
80922;BME280;70374;46.156;18.614;2023-06-04T15:33:04;99385.75;;;37.77;21.91
80922;BME280;70374;46.156;18.614;2023-06-04T15:36:07;99386.47;;;37.60;21.64
80922;BME280;70374;46.156;18.614;2023-06-04T15:39:09;99378.03;;;38.17;21.29
80922;BME280;70374;46.156;18.614;2023-06-04T15:42:12;99377.34;;;37.18;22.15
80922;BME280;70374;46.156;18.614;2023-06-04T15:45:15;99379.38;;;33.75;26.56
80922;BME280;70374;46.156;18.614;2023-06-04T15:48:18;99380.03;;;30.20;32.11
80922;BME280;70374;46.156;18.614;2023-06-04T15:51:21;99382.66;;;30.66;31.51
80922;BME280;70374;46.156;18.614;2023-06-04T15:54:23;99381.28;;;34.07;26.32
80922;BME280;70374;46.156;18.614;2023-06-04T15:57:34;99376.56;;;35.15;24.51
80922;BME280;70374;46.156;18.614;2023-06-04T16:00:37;99373.03;;;36.14;23.18
80922;BME280;70374;46.156;18.614;2023-06-04T16:03:40;99377.16;;;35.95;23.58